• Join FlightAware (Why Join?)
  • Login
  • US Flag 
02:32PM EDT


 

Airport Tracker/Info


-or-


 

Live Flight TrackerFlight Track Log ✈ DAL1981 ✈ 24-May-2013 ✈ KALB - KATL

Flight Track Log - Related Links

Times and Time Zones

All times are in EDT time to prevent confusion due to time zone crossing. See the DAL1981 flight status page for this flight to view local times or setup timezone preferences in your user account.

Time Position Orientation Groundspeed Altitude Reporting Facility
EDT Latitude Longitude Course Direction KTS MPH feet Rate Location/Type
07:05AM 42.7503 -73.8311 180° South 150 173 1,600  Level Boston Center
07:06AM 42.7683 -73.8994 290° West 228 262 3,100 2,100 Climbing Boston Center
07:07AM 42.5260 -74.1140 200° South  Level Estimated
07:07AM 42.8381 -73.9889 317° Northwest 272 313 6,700  Level Boston Center
07:08AM 42.4514 -74.2175 198° South  Level Estimated
07:08AM 42.8594 -74.0886 286° West 253 291 9,700  Level Boston Center
07:09AM 42.3767 -74.3208 200° South  Level Estimated
07:09AM 42.8100 -74.1892 236° Southwest 261 300 11,500  Level Boston Center
07:10AM 42.3020 -74.4238 180° South  Level Estimated
07:10AM 42.7228 -74.1697 171° South 288 331 13,400  Level Boston Center
07:11AM 42.6108 -74.1383 168° South 358 412 16,100 2,700 Climbing Boston Center
07:12AM 42.5194 -74.1106 167° South 381 438 18,800 2,220 Climbing Boston Center
07:13AM 42.4156 -74.0853 170° South 381 438 20,600 1,680 Climbing Boston Center
07:14AM 42.3056 -74.0514 167° South 391 450 22,200 1,560 Climbing Boston Center
07:15AM 42.1953 -74.0347 174° South 401 461 23,700 1,380 Climbing Boston Center
07:16AM 42.0806 -74.0486 185° South 406 467 25,000 1,740 Climbing Boston Center
07:19AM 41.8333 -74.1589 198° South 394 453 29,700 1,800 Climbing New York Center
07:20AM 41.7386 -74.2042 200° South 380 437 31,400 1,200 Climbing New York Center
07:21AM 41.6497 -74.2522 202° Southwest 366 421 32,200 660 Climbing New York Center
07:22AM 41.5631 -74.2950 200° South 354 407 32,800 600 Climbing New York Center
07:23AM 41.4742 -74.3428 202° Southwest 347 399 33,500 600 Climbing New York Center
07:24AM 41.3767 -74.3983 203° Southwest 341 392 34,000 240 Climbing New York Center
07:25AM 41.2953 -74.4686 213° Southwest 341 392 34,000  Level New York Center
07:26AM 41.2181 -74.5442 216° Southwest 351 404 34,000  Level New York Center
07:27AM 41.1425 -74.6228 218° Southwest 351 404 34,000  Level New York Center
07:28AM 41.0669 -74.7011 218° Southwest 351 404 34,000  Level New York Center
07:29AM 40.9894 -74.7761 216° Southwest 357 411 34,000  Level New York Center
07:30AM 40.9139 -74.8569 219° Southwest 357 411 34,000 -60 Level New York Center
07:31AM 40.8361 -74.9372 218° Southwest 357 411 33,900  Descending New York Center
07:32AM 40.7583 -75.0147 217° Southwest 357 411 34,000  Climbing New York Center
07:33AM 40.6825 -75.0922 218° Southwest 357 411 34,000  Level New York Center
07:34AM 40.6044 -75.1747 219° Southwest 357 411 34,000  Level New York Center
07:35AM 40.5286 -75.2544 219° Southwest 357 411 34,000  Level New York Center
07:36AM 40.4483 -75.3336 217° Southwest 357 411 34,000  Level New York Center
07:37AM 40.3703 -75.4131 218° Southwest 357 411 34,000  Level New York Center
07:38AM 40.2919 -75.4922 218° Southwest 362 417 34,000  Level New York Center
07:39AM 40.2181 -75.5714 219° Southwest 362 417 34,000  Level New York Center
07:40AM 40.1711 -75.6986 244° Southwest 362 417 34,000  Level New York Center
07:41AM 40.1328 -75.8153 247° West 380 437 34,000  Level New York Center
07:42AM 40.0878 -75.9422 245° Southwest 385 443 34,000  Level New York Center
07:43AM 40.0386 -76.0633 242° Southwest 390 449 34,000  Level New York Center
07:44AM 39.9772 -76.1725 234° Southwest 385 443 34,000  Level New York Center
07:45AM 39.9031 -76.2914 231° Southwest 385 443 34,000  Level New York Center
07:46AM 39.8417 -76.4000 234° Southwest 385 443 34,000  Level New York Center
07:46AM 39.8000 -76.4772 235° Southwest 387 445 34,000  Level Washington Center
07:47AM 39.7219 -76.5925 229° Southwest 381 438 34,000  Level Washington Center
07:48AM 39.6586 -76.7019 233° Southwest 387 445 34,000  Level Washington Center
07:49AM 39.5928 -76.8086 231° Southwest 387 445 34,000  Level Washington Center
07:50AM 39.5292 -76.9181 233° Southwest 387 445 34,000  Level Washington Center
07:51AM 39.4572 -77.0161 226° Southwest 387 445 34,000  Level Washington Center
07:52AM 39.3769 -77.1031 220° Southwest 379 436 34,000  Level Washington Center
07:53AM 39.2925 -77.1872 218° Southwest 379 436 34,000  Level Washington Center
07:54AM 39.2122 -77.2739 220° Southwest 384 442 34,000  Level Washington Center
07:55AM 39.1297 -77.3575 218° Southwest 384 442 34,000  Level Washington Center
07:56AM 39.0492 -77.4411 219° Southwest 384 442 34,000  Level Washington Center
07:57AM 38.9667 -77.5272 219° Southwest 384 442 34,000  Level Washington Center
07:58AM 38.8817 -77.6156 219° Southwest 389 448 34,000  Level Washington Center
07:59AM 38.7989 -77.7039 220° Southwest 389 448 34,000  Level Washington Center
08:00AM 38.7183 -77.7842 218° Southwest 397 457 34,000  Level Washington Center
08:01AM 38.6375 -77.8719 220° Southwest 397 457 34,000  Level Washington Center
08:02AM 38.5728 -77.9817 233° Southwest 392 451 34,000  Level Washington Center
08:03AM 38.5081 -78.0936 234° Southwest 392 451 34,000  Level Washington Center
08:04AM 38.4431 -78.2056 233° Southwest 392 451 34,000  Level Washington Center
08:05AM 38.3781 -78.3169 233° Southwest 397 457 34,000  Level Washington Center
08:06AM 38.3108 -78.4311 233° Southwest 402 463 34,000  Level Washington Center
08:07AM 38.2497 -78.5372 234° Southwest 400 460 34,000  Level Washington Center
08:08AM 38.1844 -78.6508 234° Southwest 400 460 34,000  Level Washington Center
08:09AM 38.1169 -78.7617 232° Southwest 400 460 34,000  Level Washington Center
08:10AM 38.0514 -78.8694 232° Southwest 405 466 34,000  Level Washington Center
08:11AM 37.9769 -78.9900 232° Southwest 405 466 34,000  Level Washington Center
08:12AM 37.9092 -79.1003 232° Southwest 405 466 34,000  Level Washington Center
08:13AM 37.8375 -79.2019 228° Southwest 405 466 34,000  Level Washington Center
08:14AM 37.7656 -79.3036 228° Southwest 399 459 34,000  Level Washington Center
08:15AM 37.6894 -79.3997 225° Southwest 394 453 34,000  Level Washington Center
08:16AM 37.6239 -79.4908 228° Southwest 394 453 34,000  Level Washington Center
08:17AM 37.5431 -79.6044 228° Southwest 389 448 34,000  Level Washington Center
08:18AM 37.4794 -79.6928 228° Southwest 389 448 34,000  Level Washington Center
08:19AM 37.4050 -79.7958 228° Southwest 398 458 34,000 -300 Level Washington Center
08:20AM 37.3306 -79.8964 227° Southwest 398 458 33,500 -660 Descending Washington Center
08:22AM 37.1794 -80.0975 227° Southwest 375 432 32,000 -540 Descending Atlanta Center
08:23AM 37.1075 -80.1950 227° Southwest 375 432 32,000  Level Atlanta Center
08:24AM 37.0353 -80.2919 227° Southwest 380 437 32,000  Level Atlanta Center
08:25AM 36.9633 -80.3917 228° Southwest 380 437 32,000  Level Atlanta Center
08:26AM 36.8831 -80.4992 227° Southwest 380 437 32,000  Level Atlanta Center
08:27AM 36.8086 -80.5931 225° Southwest 380 437 32,000  Level Atlanta Center
08:28AM 36.7361 -80.6894 227° Southwest 380 437 32,000  Level Atlanta Center
08:29AM 36.6639 -80.7883 228° Southwest 380 437 32,000  Level Atlanta Center
08:30AM 36.5892 -80.8869 227° Southwest 390 449 32,000  Level Atlanta Center
08:31AM 36.5125 -80.9881 227° Southwest 395 455 32,000  Level Atlanta Center
08:32AM 36.4378 -81.0867 227° Southwest 401 461 32,000  Level Atlanta Center
08:33AM 36.3589 -81.1900 227° Southwest 406 467 32,000  Level Atlanta Center
08:34AM 36.2842 -81.2906 227° Southwest 406 467 32,000  Level Atlanta Center
08:35AM 36.2069 -81.3883 226° Southwest 406 467 32,000  Level Atlanta Center
08:36AM 36.1300 -81.4936 228° Southwest 412 474 32,000  Level Atlanta Center
08:37AM 36.0628 -81.5781 225° Southwest 398 458 32,000  Level Atlanta Center
08:38AM 35.9875 -81.6778 227° Southwest 398 458 32,000  Level Atlanta Center
08:39AM 35.9103 -81.7775 226° Southwest 403 464 32,000  Level Atlanta Center
08:40AM 35.8328 -81.8769 226° Southwest 403 464 32,000  Level Atlanta Center
08:41AM 35.7553 -81.9789 227° Southwest 403 464 32,000  Level Atlanta Center
08:42AM 35.6714 -82.0756 223° Southwest 408 470 32,000  Level Atlanta Center
08:43AM 35.5892 -82.1694 223° Southwest 408 470 32,000  Level Atlanta Center
08:44AM 35.5031 -82.2631 222° Southwest 414 476 32,000 -540 Level Atlanta Center
08:45AM 35.4189 -82.3592 223° Southwest 414 476 31,000 -1,440 Descending Atlanta Center
08:46AM 35.3264 -82.4681 224° Southwest 414 476 29,200 -1,680 Descending Atlanta Center
08:47AM 35.2400 -82.5664 223° Southwest 414 476 27,700 -1,380 Descending Atlanta Center
08:48AM 35.1617 -82.6492 221° Southwest 414 476 26,500 -1,140 Descending Atlanta Center
08:49AM 35.0772 -82.7494 224° Southwest 414 476 25,500 -960 Descending Atlanta Center
08:50AM 34.9947 -82.8419 223° Southwest 414 476 24,600 -960 Descending Atlanta Center
08:51AM 34.9039 -82.9397 221° Southwest 407 468 23,600 -840 Descending Atlanta Center
08:52AM 34.8211 -83.0342 223° Southwest 407 468 23,000 -300 Descending Atlanta Center
08:53AM 34.7383 -83.1236 222° Southwest 407 468 23,000  Level Atlanta Center
08:54AM 34.6556 -83.2156 222° Southwest 412 474 23,000 -600 Level Atlanta Center
08:55AM 34.5728 -83.3097 223° Southwest 412 474 21,900 -1,620 Descending Atlanta Center
08:56AM 34.5022 -83.3858 222° Southwest 400 460 19,800 -2,340 Descending Atlanta Center
08:57AM 34.4211 -83.4772 223° Southwest 395 455 17,300 -2,580 Descending Atlanta Center
08:58AM 34.3444 -83.5633 223° Southwest 390 449 14,700 -2,580 Descending Atlanta Center
08:59AM 34.2675 -83.6467 222° Southwest 384 442 12,200 -1,380 Descending Atlanta Center
09:00AM 34.1906 -83.7300 222° Southwest 384 442 12,000 -120 Descending Atlanta Center
09:01AM 34.1217 -83.8056 222° Southwest 361 415 12,000  Level Atlanta Center
09:02AM 34.0489 -83.8858 222° Southwest 335 386 12,000 -360 Level Atlanta Center
09:03AM 34.0333 -83.9000 217° Southwest 315 362 11,600 -1,080 Descending Atlanta TRACON
09:04AM 33.9500 -83.9333 198° South 322 371 10,600 -840 Descending Atlanta TRACON
09:05AM 33.8667 -83.9500 189° South 315 362 10,100 -780 Descending Atlanta TRACON
09:05AM 33.7964 -83.9489 179° South 318 366 9,300 -960 Descending Atlanta Center
09:06AM 33.7086 -83.9564 184° South 318 366 8,400 -1,200 Descending Atlanta Center
09:07AM 33.6439 -83.9989 209° Southwest 282 325 7,000 -1,080 Descending Atlanta Center
09:08AM 33.6294 -84.0861 259° West 243 280 6,300 -780 Descending Atlanta Center
09:09AM 33.6333 -84.1667 273° West 229 264 5,500 -900 Descending Atlanta TRACON
09:10AM 33.6333 -84.2333 270° West 186 214 4,500 -1,020 Descending Atlanta TRACON